sensor_id;sensor_type;location;lat;lon;timestamp;pressure;altitude;pressure_sealevel;temperature;humidity
78168;BME280;67410;42.698;23.378;2024-03-29T00:01:24;95350.75;;;11.45;52.24
78168;BME280;67410;42.698;23.378;2024-03-29T00:03:51;95353.25;;;11.40;52.57
78168;BME280;67410;42.698;23.378;2024-03-29T00:06:19;95352.97;;;11.48;52.04
78168;BME280;67410;42.698;23.378;2024-03-29T00:08:45;95353.19;;;11.46;52.58
78168;BME280;67410;42.698;23.378;2024-03-29T00:11:11;95350.13;;;11.61;51.21
78168;BME280;67410;42.698;23.378;2024-03-29T00:13:37;95349.75;;;11.58;51.70
78168;BME280;67410;42.698;23.378;2024-03-29T00:16:04;95344.88;;;11.73;50.91
78168;BME280;67410;42.698;23.378;2024-03-29T00:18:30;95350.72;;;11.75;50.67
78168;BME280;67410;42.698;23.378;2024-03-29T00:20:56;95361.28;;;11.75;50.67
78168;BME280;67410;42.698;23.378;2024-03-29T00:23:22;95360.72;;;11.73;50.99
78168;BME280;67410;42.698;23.378;2024-03-29T00:25:48;95372.16;;;11.67;51.10
78168;BME280;67410;42.698;23.378;2024-03-29T00:28:14;95374.66;;;11.62;51.82
78168;BME280;67410;42.698;23.378;2024-03-29T00:30:40;95377.03;;;11.51;52.29
78168;BME280;67410;42.698;23.378;2024-03-29T00:33:06;95379.66;;;11.51;52.08
78168;BME280;67410;42.698;23.378;2024-03-29T00:35:33;95384.34;;;11.49;52.71
78168;BME280;67410;42.698;23.378;2024-03-29T00:37:59;95382.94;;;11.35;52.80
78168;BME280;67410;42.698;23.378;2024-03-29T00:40:26;95388.59;;;11.21;53.17
78168;BME280;67410;42.698;23.378;2024-03-29T00:42:52;95388.63;;;11.02;54.05
78168;BME280;67410;42.698;23.378;2024-03-29T00:45:18;95383.50;;;10.89;54.51
78168;BME280;67410;42.698;23.378;2024-03-29T00:47:44;95381.06;;;10.69;55.22
78168;BME280;67410;42.698;23.378;2024-03-29T00:50:10;95383.44;;;10.59;56.12
78168;BME280;67410;42.698;23.378;2024-03-29T00:52:36;95380.00;;;10.59;55.50
78168;BME280;67410;42.698;23.378;2024-03-29T00:55:03;95388.59;;;10.47;56.44
78168;BME280;67410;42.698;23.378;2024-03-29T00:57:29;95384.56;;;10.45;56.61
78168;BME280;67410;42.698;23.378;2024-03-29T00:59:55;95388.00;;;10.45;56.46
78168;BME280;67410;42.698;23.378;2024-03-29T01:02:24;95390.25;;;10.24;57.70
78168;BME280;67410;42.698;23.378;2024-03-29T01:04:50;95386.16;;;10.03;58.52
78168;BME280;67410;42.698;23.378;2024-03-29T01:07:17;95389.28;;;9.87;59.04
78168;BME280;67410;42.698;23.378;2024-03-29T01:09:43;95390.81;;;9.76;59.73
78168;BME280;67410;42.698;23.378;2024-03-29T01:12:10;95389.25;;;9.62;60.16
78168;BME280;67410;42.698;23.378;2024-03-29T01:14:36;95392.16;;;9.54;60.56
78168;BME280;67410;42.698;23.378;2024-03-29T01:17:02;95396.81;;;9.52;60.23
78168;BME280;67410;42.698;23.378;2024-03-29T01:19:28;95400.56;;;9.31;60.34
78168;BME280;67410;42.698;23.378;2024-03-29T01:21:54;95400.25;;;9.14;62.03
78168;BME280;67410;42.698;23.378;2024-03-29T01:24:20;95403.50;;;9.09;61.76
78168;BME280;67410;42.698;23.378;2024-03-29T01:26:47;95401.34;;;9.00;63.58
78168;BME280;67410;42.698;23.378;2024-03-29T01:29:13;95410.44;;;8.91;62.75
78168;BME280;67410;42.698;23.378;2024-03-29T01:31:39;95406.88;;;8.65;63.71
78168;BME280;67410;42.698;23.378;2024-03-29T01:34:05;95412.16;;;8.52;63.92
78168;BME280;67410;42.698;23.378;2024-03-29T01:36:31;95421.88;;;8.38;64.62
78168;BME280;67410;42.698;23.378;2024-03-29T01:38:57;95423.47;;;8.53;63.90
78168;BME280;67410;42.698;23.378;2024-03-29T01:41:24;95430.94;;;8.56;63.95
78168;BME280;67410;42.698;23.378;2024-03-29T01:43:54;95436.38;;;8.54;64.09
78168;BME280;67410;42.698;23.378;2024-03-29T01:46:23;95431.72;;;8.56;64.19
78168;BME280;67410;42.698;23.378;2024-03-29T01:48:53;95437.59;;;8.58;64.20
78168;BME280;67410;42.698;23.378;2024-03-29T01:51:23;95434.34;;;8.63;64.33
78168;BME280;67410;42.698;23.378;2024-03-29T01:53:51;95438.91;;;9.00;62.64
78168;BME280;67410;42.698;23.378;2024-03-29T01:56:19;95444.16;;;8.94;62.83
78168;BME280;67410;42.698;23.378;2024-03-29T01:58:45;95454.88;;;8.86;62.46
78168;BME280;67410;42.698;23.378;2024-03-29T02:01:12;95457.09;;;9.02;62.64
78168;BME280;67410;42.698;23.378;2024-03-29T02:03:39;95458.31;;;8.93;64.01
78168;BME280;67410;42.698;23.378;2024-03-29T02:06:06;95464.59;;;8.85;63.08
78168;BME280;67410;42.698;23.378;2024-03-29T02:08:34;95470.63;;;8.92;62.73
78168;BME280;67410;42.698;23.378;2024-03-29T02:11:00;95479.84;;;9.14;61.47
78168;BME280;67410;42.698;23.378;2024-03-29T02:13:27;95483.28;;;9.22;61.47
78168;BME280;67410;42.698;23.378;2024-03-29T02:15:53;95480.97;;;9.45;61.79
78168;BME280;67410;42.698;23.378;2024-03-29T02:18:19;95493.09;;;9.46;60.58
78168;BME280;67410;42.698;23.378;2024-03-29T02:20:46;95502.59;;;9.47;60.33
78168;BME280;67410;42.698;23.378;2024-03-29T02:23:26;95502.16;;;9.50;59.84
78168;BME280;67410;42.698;23.378;2024-03-29T02:25:55;95511.47;;;9.91;58.35
78168;BME280;67410;42.698;23.378;2024-03-29T02:28:22;95513.16;;;9.78;58.48
78168;BME280;67410;42.698;23.378;2024-03-29T02:30:49;95522.75;;;9.98;58.11
78168;BME280;67410;42.698;23.378;2024-03-29T02:33:16;95528.00;;;9.98;58.29
78168;BME280;67410;42.698;23.378;2024-03-29T02:35:43;95522.97;;;9.96;58.70
78168;BME280;67410;42.698;23.378;2024-03-29T02:38:09;95524.69;;;9.77;58.90
78168;BME280;67410;42.698;23.378;2024-03-29T02:40:35;95527.72;;;9.81;58.79
78168;BME280;67410;42.698;23.378;2024-03-29T02:43:01;95529.75;;;9.72;59.46
78168;BME280;67410;42.698;23.378;2024-03-29T02:45:27;95535.13;;;9.91;58.77
78168;BME280;67410;42.698;23.378;2024-03-29T02:47:54;95536.78;;;9.85;59.30
78168;BME280;67410;42.698;23.378;2024-03-29T02:50:21;95525.09;;;9.74;59.21
78168;BME280;67410;42.698;23.378;2024-03-29T02:52:47;95543.69;;;9.79;59.65
78168;BME280;67410;42.698;23.378;2024-03-29T02:55:13;95550.31;;;9.89;58.72
78168;BME280;67410;42.698;23.378;2024-03-29T02:57:39;95546.28;;;9.86;58.94
78168;BME280;67410;42.698;23.378;2024-03-29T03:00:07;95539.03;;;9.81;59.00
78168;BME280;67410;42.698;23.378;2024-03-29T03:02:40;95531.47;;;9.92;58.57
78168;BME280;67410;42.698;23.378;2024-03-29T03:05:07;95550.22;;;10.08;58.32
78168;BME280;67410;42.698;23.378;2024-03-29T03:07:34;95549.16;;;10.16;57.74
78168;BME280;67410;42.698;23.378;2024-03-29T03:10:19;95551.56;;;10.17;58.06
78168;BME280;67410;42.698;23.378;2024-03-29T03:13:04;95555.44;;;10.15;58.12
78168;BME280;67410;42.698;23.378;2024-03-29T03:15:30;95557.81;;;10.30;57.38
78168;BME280;67410;42.698;23.378;2024-03-29T03:17:56;95561.81;;;10.39;57.11
78168;BME280;67410;42.698;23.378;2024-03-29T03:20:22;95567.06;;;10.39;57.42
78168;BME280;67410;42.698;23.378;2024-03-29T03:22:51;95580.09;;;10.27;57.60
78168;BME280;67410;42.698;23.378;2024-03-29T03:25:17;95581.38;;;10.11;58.25
78168;BME280;67410;42.698;23.378;2024-03-29T03:27:43;95581.91;;;9.82;59.80
78168;BME280;67410;42.698;23.378;2024-03-29T03:30:09;95581.97;;;9.69;59.71
78168;BME280;67410;42.698;23.378;2024-03-29T03:32:37;95592.94;;;9.53;60.57
78168;BME280;67410;42.698;23.378;2024-03-29T03:35:03;95595.59;;;9.46;60.78
78168;BME280;67410;42.698;23.378;2024-03-29T03:37:29;95602.66;;;9.39;60.94
78168;BME280;67410;42.698;23.378;2024-03-29T03:39:55;95607.56;;;9.29;62.04
78168;BME280;67410;42.698;23.378;2024-03-29T03:42:22;95608.78;;;9.13;62.29
78168;BME280;67410;42.698;23.378;2024-03-29T03:44:49;95621.72;;;8.81;63.75
78168;BME280;67410;42.698;23.378;2024-03-29T03:47:15;95629.16;;;8.58;64.07
78168;BME280;67410;42.698;23.378;2024-03-29T03:49:41;95633.41;;;8.53;64.75
78168;BME280;67410;42.698;23.378;2024-03-29T03:52:07;95630.16;;;8.51;65.32
78168;BME280;67410;42.698;23.378;2024-03-29T03:54:33;95626.53;;;8.52;64.79
78168;BME280;67410;42.698;23.378;2024-03-29T03:57:00;95636.41;;;8.36;65.77
78168;BME280;67410;42.698;23.378;2024-03-29T03:59:26;95636.97;;;8.32;66.14
78168;BME280;67410;42.698;23.378;2024-03-29T04:01:52;95636.13;;;8.18;67.03
78168;BME280;67410;42.698;23.378;2024-03-29T04:04:20;95636.28;;;8.10;66.87
78168;BME280;67410;42.698;23.378;2024-03-29T04:06:46;95641.09;;;8.00;67.41
78168;BME280;67410;42.698;23.378;2024-03-29T04:09:15;95649.72;;;7.94;67.82
78168;BME280;67410;42.698;23.378;2024-03-29T04:11:42;95650.34;;;7.96;67.91
78168;BME280;67410;42.698;23.378;2024-03-29T04:14:08;95658.81;;;7.98;67.70
78168;BME280;67410;42.698;23.378;2024-03-29T04:16:35;95658.97;;;7.83;69.79
78168;BME280;67410;42.698;23.378;2024-03-29T04:19:01;95663.94;;;7.71;70.50
78168;BME280;67410;42.698;23.378;2024-03-29T04:21:27;95675.81;;;7.61;69.94
78168;BME280;67410;42.698;23.378;2024-03-29T04:23:54;95674.31;;;7.52;69.61
78168;BME280;67410;42.698;23.378;2024-03-29T04:26:20;95685.81;;;7.51;70.08
78168;BME280;67410;42.698;23.378;2024-03-29T04:28:46;95694.91;;;7.55;70.80
78168;BME280;67410;42.698;23.378;2024-03-29T04:31:12;95690.09;;;7.58;70.77
78168;BME280;67410;42.698;23.378;2024-03-29T04:33:38;95688.66;;;7.56;71.13
78168;BME280;67410;42.698;23.378;2024-03-29T04:36:05;95700.03;;;7.35;71.70
78168;BME280;67410;42.698;23.378;2024-03-29T04:38:32;95700.53;;;7.24;72.16
78168;BME280;67410;42.698;23.378;2024-03-29T04:40:58;95711.63;;;7.26;72.94
78168;BME280;67410;42.698;23.378;2024-03-29T04:43:27;95721.78;;;7.35;73.06
78168;BME280;67410;42.698;23.378;2024-03-29T04:46:14;95727.84;;;7.42;72.52
78168;BME280;67410;42.698;23.378;2024-03-29T04:48:41;95722.41;;;7.37;73.89
78168;BME280;67410;42.698;23.378;2024-03-29T04:51:09;95724.44;;;7.42;72.26
78168;BME280;67410;42.698;23.378;2024-03-29T04:53:36;95727.97;;;7.56;72.28
78168;BME280;67410;42.698;23.378;2024-03-29T04:56:03;95735.84;;;7.56;72.74
78168;BME280;67410;42.698;23.378;2024-03-29T04:58:29;95737.31;;;7.65;73.24
78168;BME280;67410;42.698;23.378;2024-03-29T05:00:55;95742.44;;;7.79;71.56
78168;BME280;67410;42.698;23.378;2024-03-29T05:03:22;95733.63;;;7.94;71.67
78168;BME280;67410;42.698;23.378;2024-03-29T05:05:52;95733.59;;;8.28;69.51
78168;BME280;67410;42.698;23.378;2024-03-29T05:08:19;95738.19;;;8.61;69.46
78168;BME280;67410;42.698;23.378;2024-03-29T05:10:47;95738.03;;;8.82;68.70
78168;BME280;67410;42.698;23.378;2024-03-29T05:13:14;95750.81;;;9.11;68.05
78168;BME280;67410;42.698;23.378;2024-03-29T05:15:40;95749.63;;;9.34;68.00
78168;BME280;67410;42.698;23.378;2024-03-29T05:18:06;95759.13;;;9.61;67.01
78168;BME280;67410;42.698;23.378;2024-03-29T05:20:32;95759.28;;;9.99;66.00
78168;BME280;67410;42.698;23.378;2024-03-29T05:22:58;95758.56;;;10.50;64.95
78168;BME280;67410;42.698;23.378;2024-03-29T05:25:25;95768.59;;;11.11;64.12
78168;BME280;67410;42.698;23.378;2024-03-29T05:27:52;95767.41;;;11.63;60.87
78168;BME280;67410;42.698;23.378;2024-03-29T05:30:18;95761.00;;;12.20;58.39
78168;BME280;67410;42.698;23.378;2024-03-29T05:32:44;95767.19;;;12.51;59.81
78168;BME280;67410;42.698;23.378;2024-03-29T05:35:10;95774.88;;;13.01;57.05
78168;BME280;67410;42.698;23.378;2024-03-29T05:37:37;95772.28;;;13.42;54.97
78168;BME280;67410;42.698;23.378;2024-03-29T05:40:04;95764.72;;;13.58;53.38
78168;BME280;67410;42.698;23.378;2024-03-29T05:42:32;95766.81;;;13.67;53.37
78168;BME280;67410;42.698;23.378;2024-03-29T05:45:00;95764.75;;;13.81;55.26
78168;BME280;67410;42.698;23.378;2024-03-29T05:47:26;95770.28;;;13.91;54.97
78168;BME280;67410;42.698;23.378;2024-03-29T05:49:53;95756.59;;;14.41;52.43
78168;BME280;67410;42.698;23.378;2024-03-29T05:52:20;95763.31;;;14.60;51.52
78168;BME280;67410;42.698;23.378;2024-03-29T05:54:46;95772.53;;;14.69;52.98
78168;BME280;67410;42.698;23.378;2024-03-29T05:57:13;95754.59;;;15.16;51.26
78168;BME280;67410;42.698;23.378;2024-03-29T05:59:39;95764.38;;;15.44;52.05
78168;BME280;67410;42.698;23.378;2024-03-29T06:02:05;95765.00;;;15.80;50.40
78168;BME280;67410;42.698;23.378;2024-03-29T06:04:31;95769.50;;;16.13;48.20
78168;BME280;67410;42.698;23.378;2024-03-29T06:07:02;95771.44;;;16.39;47.17
78168;BME280;67410;42.698;23.378;2024-03-29T06:09:29;95781.97;;;16.68;48.16
78168;BME280;67410;42.698;23.378;2024-03-29T06:11:56;95783.97;;;17.04;48.01
78168;BME280;67410;42.698;23.378;2024-03-29T06:14:23;95780.88;;;17.39;46.48
78168;BME280;67410;42.698;23.378;2024-03-29T06:17:08;95779.59;;;17.69;42.76
78168;BME280;67410;42.698;23.378;2024-03-29T06:19:51;95781.19;;;17.70;43.01
78168;BME280;67410;42.698;23.378;2024-03-29T06:22:17;95779.09;;;17.72;42.56
78168;BME280;67410;42.698;23.378;2024-03-29T06:24:44;95783.91;;;18.12;42.05
78168;BME280;67410;42.698;23.378;2024-03-29T06:27:11;95789.25;;;17.80;43.25
78168;BME280;67410;42.698;23.378;2024-03-29T06:29:37;95788.75;;;17.83;41.08
78168;BME280;67410;42.698;23.378;2024-03-29T06:32:03;95793.63;;;17.91;43.68
78168;BME280;67410;42.698;23.378;2024-03-29T06:34:32;95795.97;;;18.19;42.34
78168;BME280;67410;42.698;23.378;2024-03-29T06:36:58;95787.88;;;18.09;43.53
78168;BME280;67410;42.698;23.378;2024-03-29T06:39:25;95794.41;;;18.66;43.50
78168;BME280;67410;42.698;23.378;2024-03-29T06:41:52;95790.63;;;19.19;40.20
78168;BME280;67410;42.698;23.378;2024-03-29T06:44:18;95796.53;;;19.31;41.34
78168;BME280;67410;42.698;23.378;2024-03-29T06:46:46;95797.06;;;19.43;41.23
78168;BME280;67410;42.698;23.378;2024-03-29T06:49:12;95801.72;;;19.83;39.38
78168;BME280;67410;42.698;23.378;2024-03-29T06:51:42;95801.44;;;19.75;38.43
78168;BME280;67410;42.698;23.378;2024-03-29T06:54:09;95795.84;;;20.07;38.81
78168;BME280;67410;42.698;23.378;2024-03-29T06:56:36;95791.00;;;20.34;37.92
78168;BME280;67410;42.698;23.378;2024-03-29T06:59:02;95792.09;;;19.98;37.73
78168;BME280;67410;42.698;23.378;2024-03-29T07:01:29;95789.16;;;19.99;38.00
78168;BME280;67410;42.698;23.378;2024-03-29T07:03:56;95797.94;;;20.55;35.47
78168;BME280;67410;42.698;23.378;2024-03-29T07:06:22;95793.97;;;20.43;35.95
78168;BME280;67410;42.698;23.378;2024-03-29T07:08:48;95793.56;;;20.85;36.03
78168;BME280;67410;42.698;23.378;2024-03-29T07:11:15;95797.75;;;21.11;36.84
78168;BME280;67410;42.698;23.378;2024-03-29T07:13:41;95802.94;;;20.87;34.01
78168;BME280;67410;42.698;23.378;2024-03-29T07:16:07;95804.34;;;20.54;35.47
78168;BME280;67410;42.698;23.378;2024-03-29T07:18:33;95804.59;;;20.73;34.79
78168;BME280;67410;42.698;23.378;2024-03-29T07:20:59;95803.72;;;20.98;34.77
78168;BME280;67410;42.698;23.378;2024-03-29T07:23:25;95804.59;;;20.78;33.83
78168;BME280;67410;42.698;23.378;2024-03-29T07:26:03;95801.34;;;20.81;34.37
78168;BME280;67410;42.698;23.378;2024-03-29T07:28:30;95808.97;;;21.23;33.96
78168;BME280;67410;42.698;23.378;2024-03-29T07:30:57;95810.84;;;21.18;33.85
78168;BME280;67410;42.698;23.378;2024-03-29T07:33:24;95806.84;;;21.20;33.04
78168;BME280;67410;42.698;23.378;2024-03-29T07:35:55;95807.91;;;21.30;36.64
78168;BME280;67410;42.698;23.378;2024-03-29T07:38:22;95806.56;;;21.27;34.53
78168;BME280;67410;42.698;23.378;2024-03-29T07:40:52;95806.78;;;21.80;34.19
78168;BME280;67410;42.698;23.378;2024-03-29T07:43:18;95801.75;;;22.12;32.09
78168;BME280;67410;42.698;23.378;2024-03-29T07:45:45;95797.22;;;22.08;33.49
78168;BME280;67410;42.698;23.378;2024-03-29T07:48:13;95795.66;;;22.31;30.93
78168;BME280;67410;42.698;23.378;2024-03-29T07:50:44;95802.06;;;22.06;30.93
78168;BME280;67410;42.698;23.378;2024-03-29T07:53:10;95810.59;;;22.13;32.13
78168;BME280;67410;42.698;23.378;2024-03-29T07:55:40;95796.59;;;22.45;30.93
78168;BME280;67410;42.698;23.378;2024-03-29T07:58:09;95804.91;;;22.72;30.56
78168;BME280;67410;42.698;23.378;2024-03-29T08:00:40;95802.13;;;23.06;30.18
78168;BME280;67410;42.698;23.378;2024-03-29T08:03:09;95804.72;;;23.16;32.04
78168;BME280;67410;42.698;23.378;2024-03-29T08:05:35;95803.88;;;23.40;29.09
78168;BME280;67410;42.698;23.378;2024-03-29T08:08:02;95808.31;;;23.49;31.96
78168;BME280;67410;42.698;23.378;2024-03-29T08:10:29;95800.84;;;23.65;30.01
78168;BME280;67410;42.698;23.378;2024-03-29T08:12:55;95794.53;;;23.56;28.13
78168;BME280;67410;42.698;23.378;2024-03-29T08:15:21;95795.50;;;23.41;30.42
78168;BME280;67410;42.698;23.378;2024-03-29T08:17:48;95792.19;;;23.87;28.93
78168;BME280;67410;42.698;23.378;2024-03-29T08:20:14;95785.59;;;24.12;30.63
78168;BME280;67410;42.698;23.378;2024-03-29T08:22:41;95774.81;;;23.98;27.59
78168;BME280;67410;42.698;23.378;2024-03-29T08:25:08;95772.13;;;23.98;30.29
78168;BME280;67410;42.698;23.378;2024-03-29T08:27:34;95775.31;;;24.00;29.72
78168;BME280;67410;42.698;23.378;2024-03-29T08:30:00;95776.59;;;24.35;27.58
78168;BME280;67410;42.698;23.378;2024-03-29T08:32:26;95774.03;;;24.11;30.77
78168;BME280;67410;42.698;23.378;2024-03-29T08:34:53;95774.59;;;24.87;29.51
78168;BME280;67410;42.698;23.378;2024-03-29T08:37:19;95770.47;;;24.89;27.37
78168;BME280;67410;42.698;23.378;2024-03-29T08:39:45;95764.81;;;24.77;28.54
78168;BME280;67410;42.698;23.378;2024-03-29T08:42:11;95769.41;;;24.77;29.82
78168;BME280;67410;42.698;23.378;2024-03-29T08:44:37;95767.13;;;24.98;29.03
78168;BME280;67410;42.698;23.378;2024-03-29T08:47:05;95760.81;;;24.61;28.41
78168;BME280;67410;42.698;23.378;2024-03-29T08:49:32;95762.72;;;25.15;28.29
78168;BME280;67410;42.698;23.378;2024-03-29T08:51:58;95761.28;;;24.90;28.50
78168;BME280;67410;42.698;23.378;2024-03-29T08:54:26;95760.50;;;24.76;27.59
78168;BME280;67410;42.698;23.378;2024-03-29T08:56:55;95756.34;;;24.84;27.25
78168;BME280;67410;42.698;23.378;2024-03-29T08:59:21;95752.75;;;25.02;29.17
78168;BME280;67410;42.698;23.378;2024-03-29T09:01:48;95753.47;;;25.80;28.28
78168;BME280;67410;42.698;23.378;2024-03-29T09:04:15;95744.25;;;25.94;26.39
78168;BME280;67410;42.698;23.378;2024-03-29T09:06:42;95743.66;;;26.59;26.91
78168;BME280;67410;42.698;23.378;2024-03-29T09:09:09;95748.94;;;27.13;28.72
78168;BME280;67410;42.698;23.378;2024-03-29T09:11:35;95734.69;;;27.29;26.33
78168;BME280;67410;42.698;23.378;2024-03-29T09:14:02;95736.34;;;26.60;25.27
78168;BME280;67410;42.698;23.378;2024-03-29T09:16:30;95731.22;;;26.89;24.35
78168;BME280;67410;42.698;23.378;2024-03-29T09:18:57;95727.53;;;26.77;25.22
78168;BME280;67410;42.698;23.378;2024-03-29T09:21:23;95724.50;;;26.78;28.43
78168;BME280;67410;42.698;23.378;2024-03-29T09:23:49;95722.59;;;26.79;25.36
78168;BME280;67410;42.698;23.378;2024-03-29T09:26:19;95723.16;;;26.98;26.31
78168;BME280;67410;42.698;23.378;2024-03-29T09:28:45;95711.91;;;27.22;24.10
78168;BME280;67410;42.698;23.378;2024-03-29T09:31:11;95702.22;;;27.47;23.81
78168;BME280;67410;42.698;23.378;2024-03-29T09:33:37;95692.88;;;26.79;24.51
78168;BME280;67410;42.698;23.378;2024-03-29T09:36:04;95687.47;;;26.87;24.78
78168;BME280;67410;42.698;23.378;2024-03-29T09:38:30;95682.97;;;27.57;27.35
78168;BME280;67410;42.698;23.378;2024-03-29T09:43:31;95677.75;;;28.42;25.11
78168;BME280;67410;42.698;23.378;2024-03-29T09:45:58;95675.78;;;28.51;23.92
78168;BME280;67410;42.698;23.378;2024-03-29T09:48:25;95676.63;;;28.43;22.14
78168;BME280;67410;42.698;23.378;2024-03-29T09:50:53;95672.50;;;28.37;26.51
78168;BME280;67410;42.698;23.378;2024-03-29T09:53:21;95677.22;;;28.48;24.24
78168;BME280;67410;42.698;23.378;2024-03-29T09:55:49;95666.69;;;29.35;23.97
78168;BME280;67410;42.698;23.378;2024-03-29T09:58:16;95664.06;;;28.29;22.94
78168;BME280;67410;42.698;23.378;2024-03-29T10:00:42;95656.63;;;28.56;21.43
78168;BME280;67410;42.698;23.378;2024-03-29T10:03:08;95662.00;;;28.35;26.66
78168;BME280;67410;42.698;23.378;2024-03-29T10:05:35;95658.69;;;28.21;23.05
78168;BME280;67410;42.698;23.378;2024-03-29T10:08:04;95658.81;;;28.33;23.85
78168;BME280;67410;42.698;23.378;2024-03-29T10:10:33;95658.34;;;28.99;22.98
78168;BME280;67410;42.698;23.378;2024-03-29T10:12:59;95664.25;;;28.62;23.52
78168;BME280;67410;42.698;23.378;2024-03-29T10:15:29;95651.38;;;29.30;22.02
78168;BME280;67410;42.698;23.378;2024-03-29T10:17:57;95652.72;;;29.66;20.61
78168;BME280;67410;42.698;23.378;2024-03-29T10:20:23;95647.09;;;28.88;23.05
78168;BME280;67410;42.698;23.378;2024-03-29T10:22:52;95651.25;;;29.06;22.07
78168;BME280;67410;42.698;23.378;2024-03-29T10:25:20;95653.38;;;29.01;22.67
78168;BME280;67410;42.698;23.378;2024-03-29T10:27:47;95656.56;;;29.65;20.60
78168;BME280;67410;42.698;23.378;2024-03-29T10:30:13;95656.88;;;30.54;21.37
78168;BME280;67410;42.698;23.378;2024-03-29T10:32:45;95650.13;;;28.78;21.54
78168;BME280;67410;42.698;23.378;2024-03-29T10:35:11;95644.22;;;28.84;21.70
78168;BME280;67410;42.698;23.378;2024-03-29T10:37:37;95641.13;;;29.36;23.18
78168;BME280;67410;42.698;23.378;2024-03-29T10:40:10;95641.28;;;29.40;19.95
78168;BME280;67410;42.698;23.378;2024-03-29T10:42:40;95636.56;;;29.07;23.21
78168;BME280;67410;42.698;23.378;2024-03-29T10:45:07;95639.78;;;30.41;21.38
78168;BME280;67410;42.698;23.378;2024-03-29T10:47:34;95640.03;;;30.73;19.57
78168;BME280;67410;42.698;23.378;2024-03-29T10:50:00;95630.22;;;29.66;20.87
78168;BME280;67410;42.698;23.378;2024-03-29T10:52:27;95628.88;;;30.05;19.66
78168;BME280;67410;42.698;23.378;2024-03-29T10:54:53;95621.56;;;30.66;21.65
78168;BME280;67410;42.698;23.378;2024-03-29T10:57:24;95628.84;;;31.26;18.79
78168;BME280;67410;42.698;23.378;2024-03-29T10:59:56;95628.81;;;31.94;20.25
78168;BME280;67410;42.698;23.378;2024-03-29T11:05:02;95620.41;;;32.62;18.56
78168;BME280;67410;42.698;23.378;2024-03-29T11:07:34;95618.47;;;32.63;20.17
78168;BME280;67410;42.698;23.378;2024-03-29T11:10:03;95606.03;;;32.97;18.26
78168;BME280;67410;42.698;23.378;2024-03-29T11:12:35;95610.41;;;33.56;17.88
78168;BME280;67410;42.698;23.378;2024-03-29T11:15:09;95617.09;;;35.22;15.65
78168;BME280;67410;42.698;23.378;2024-03-29T11:17:38;95613.94;;;34.67;16.38
78168;BME280;67410;42.698;23.378;2024-03-29T11:20:05;95613.97;;;34.93;15.60
78168;BME280;67410;42.698;23.378;2024-03-29T11:22:32;95610.00;;;35.77;15.78
78168;BME280;67410;42.698;23.378;2024-03-29T11:25:01;95613.47;;;34.61;16.96
78168;BME280;67410;42.698;23.378;2024-03-29T11:27:29;95606.66;;;33.64;16.22
78168;BME280;67410;42.698;23.378;2024-03-29T11:29:55;95595.44;;;34.34;16.59
78168;BME280;67410;42.698;23.378;2024-03-29T11:32:34;95590.94;;;36.28;14.68
78168;BME280;67410;42.698;23.378;2024-03-29T11:35:01;95599.03;;;36.66;15.33
78168;BME280;67410;42.698;23.378;2024-03-29T11:37:31;95607.41;;;37.45;15.42
78168;BME280;67410;42.698;23.378;2024-03-29T11:40:00;95606.03;;;37.11;14.51
78168;BME280;67410;42.698;23.378;2024-03-29T11:42:49;95600.28;;;37.37;14.73
78168;BME280;67410;42.698;23.378;2024-03-29T11:45:18;95601.69;;;38.04;13.86
78168;BME280;67410;42.698;23.378;2024-03-29T11:47:45;95601.00;;;37.20;15.49
78168;BME280;67410;42.698;23.378;2024-03-29T11:50:12;95596.00;;;35.52;17.07
78168;BME280;67410;42.698;23.378;2024-03-29T11:52:39;95585.78;;;37.37;13.29
78168;BME280;67410;42.698;23.378;2024-03-29T11:55:06;95580.44;;;37.72;13.93
78168;BME280;67410;42.698;23.378;2024-03-29T11:57:33;95590.28;;;37.91;15.28
78168;BME280;67410;42.698;23.378;2024-03-29T12:00:00;95584.06;;;38.58;13.42
78168;BME280;67410;42.698;23.378;2024-03-29T12:02:26;95584.66;;;39.51;12.20
78168;BME280;67410;42.698;23.378;2024-03-29T12:04:52;95576.94;;;39.10;12.40
78168;BME280;67410;42.698;23.378;2024-03-29T12:07:18;95575.03;;;39.84;13.36
78168;BME280;67410;42.698;23.378;2024-03-29T12:09:44;95572.13;;;40.09;11.71
78168;BME280;67410;42.698;23.378;2024-03-29T12:12:10;95571.50;;;40.87;11.19
78168;BME280;67410;42.698;23.378;2024-03-29T12:14:37;95572.25;;;38.36;14.07
78168;BME280;67410;42.698;23.378;2024-03-29T12:17:10;95577.72;;;39.00;14.33
78168;BME280;67410;42.698;23.378;2024-03-29T12:19:39;95577.41;;;39.89;12.23
78168;BME280;67410;42.698;23.378;2024-03-29T12:22:08;95569.69;;;39.52;12.63
78168;BME280;67410;42.698;23.378;2024-03-29T12:24:35;95576.50;;;39.12;11.95
78168;BME280;67410;42.698;23.378;2024-03-29T12:27:02;95575.75;;;38.86;13.08
78168;BME280;67410;42.698;23.378;2024-03-29T12:29:28;95559.56;;;39.20;13.12
78168;BME280;67410;42.698;23.378;2024-03-29T12:32:01;95571.81;;;38.98;12.35
78168;BME280;67410;42.698;23.378;2024-03-29T12:34:28;95564.00;;;39.91;13.13
78168;BME280;67410;42.698;23.378;2024-03-29T12:36:58;95563.81;;;37.51;13.88
78168;BME280;67410;42.698;23.378;2024-03-29T12:39:25;95564.00;;;38.72;13.14
78168;BME280;67410;42.698;23.378;2024-03-29T12:41:52;95557.22;;;39.19;12.89
78168;BME280;67410;42.698;23.378;2024-03-29T12:44:22;95556.31;;;40.16;12.45
78168;BME280;67410;42.698;23.378;2024-03-29T12:46:49;95556.28;;;41.06;10.88
78168;BME280;67410;42.698;23.378;2024-03-29T12:49:15;95549.38;;;39.10;11.78
78168;BME280;67410;42.698;23.378;2024-03-29T12:51:44;95549.41;;;38.85;13.52
78168;BME280;67410;42.698;23.378;2024-03-29T12:54:10;95544.00;;;38.57;13.23
78168;BME280;67410;42.698;23.378;2024-03-29T12:56:36;95547.09;;;38.70;12.41
78168;BME280;67410;42.698;23.378;2024-03-29T12:59:04;95547.03;;;38.94;12.01